Nearby METAR Reports

 

KSJC - San Jose, California, USA
Distance from station: NØ 14km
Oppdatert: 29/09/2022 22:53
Few Clouds
Few Clouds
 Vind fra NNV
Vind: NNV 19 km/h
Temperatur: 27°C
Heat Index: 27°C
Duggpunkt: 13°C
Fuktighet: 42%
Barometer: 1015.6 hPa
Clouds: Few Clouds
Visibility: 16 km
Cloud details: Few Clouds 3658 m
2022/09/29 20:53 KSJC 292053Z 33010KT 10SM FEW120 27/13 A2999 RMK AO2 SLP153 T02720128 58025
KNUQ - Moffett Nas/Mtn, California, USA
Distance from station: N 14km
Oppdatert: 29/09/2022 22:55
Klart
Klart
 Vind fra N
Vind: N 19 km/h
Temperatur: 24°C
Duggpunkt: 14°C
Fuktighet: 54%
Barometer: 1015.6 hPa
Clouds: Klart
Visibility: 14 km
2022/09/29 20:55 KNUQ 292055Z AUTO 35010KT 9SM CLR 24/14 A2999 RMK AO2
 
KPAO - Palo Alto, California, USA
Distance from station: NNV 23km
Oppdatert: 29/09/2022 22:47
Klart
Klart
 Vind fra N
Vind: N 20 km/h
Temperatur: 23°C
Duggpunkt: 16°C
Fuktighet: 65%
Barometer: 1015.9 hPa
Clouds: Klart
Visibility: 16 km
2022/09/29 20:47 KPAO 292047Z 35011KT 10SM SKC 23/16 A3000
KRHV - San Jose/Reid, California, USA
Distance from station: ØNØ 19km
Oppdatert: 29/09/2022 21:47
NOT Current
Klart
Klart
 Vind fra NV
Vind: NV 9 km/h
Temperatur: 25°C
Duggpunkt: 13°C
Fuktighet: 47%
Barometer: 1016.6 hPa
Clouds: Klart
Visibility: 16 km
2022/09/29 19:47 KRHV 291947Z 32005KT 10SM SKC 25/13 A3002
 
KOAK - Oakland, California, USA
Distance from station: NNV 50km
Oppdatert: 29/09/2022 22:53
Klart
Klart
 Vind fra NV
Vind: NV 17 km/h
Temperatur: 24°C
Duggpunkt: 14°C
Fuktighet: 54%
Barometer: 1016.3 hPa
Clouds: Klart
Visibility: 16 km
2022/09/29 20:53 KOAK 292053Z 31009KT 10SM CLR 24/14 A3001 RMK AO2 SLP160 T02440139 58022
KSQL - San Carlos Airpo, California, USA
Distance from station: NV 34km
Oppdatert: 29/09/2022 22:47
Klart
Klart
 Vind fra NNV
Vind: NNV 9 km/h
Temperatur: 25°C
Duggpunkt: 13°C
Fuktighet: 47%
Barometer: 1016.3 hPa
Clouds: Klart
Visibility: 16 km
2022/09/29 20:47 KSQL 292047Z 34005KT 10SM CLR 25/13 A3001
 
KSFO - San Francisco, California, USA
Distance from station: NV 49km
Oppdatert: 29/09/2022 22:56
Klart
Klart
 Vind fra N
Vind: N 11 km/h
Temperatur: 23°C
Duggpunkt: 16°C
Fuktighet: 65%
Barometer: 1015.9 hPa
Clouds: Klart
Visibility: 16 km
2022/09/29 20:56 KSFO 292056Z 01006KT 10SM CLR 23/16 A3000 RMK AO2 SLP159 T02280156 58020
KE16 - San Martin, California, USA
Distance from station: ØSØ 43km
Oppdatert: 29/09/2022 22:55
Klart
Klart
 Vind fra NV
Vind: NV 17 km/h
Temperatur: 28°C
Duggpunkt: 7°C
Fuktighet: 26%
Barometer: 1015.9 hPa
Clouds: Klart
Visibility: 16 km
2022/09/29 20:55 KE16 292055Z AUTO 32009KT 10SM CLR 28/07 A3000 RMK AO2 PWINO PNO
 
KWVI - Watsonville, California, USA
Distance from station: SSØ 44km
Oppdatert: 29/09/2022 22:53
Klart
Klart
 Vind fra SSV
Vind: SSV 11 km/h
Temperatur: 23°C
Duggpunkt: 14°C
Fuktighet: 57%
Barometer: 1015.9 hPa
Clouds: Klart
Visibility: 16 km
2022/09/29 20:53 KWVI 292053Z AUTO 21006KT 10SM CLR 23/14 A3000 RMK AO2 SLP159 T02280144 56022
KHAF - Half Moon Bay, California, USA
Distance from station: VNV 50km
Oppdatert: 29/09/2022 22:55
Haze, Klart
Haze, Klart
 Vind fra NNV
Vind: NNV 19 km/h
Temperatur: 19°C
Duggpunkt: 15°C
Fuktighet: 78%
Barometer: 1016.6 hPa
Oversikt: Haze
Clouds: Klart
Visibility: 8 km
2022/09/29 20:55 KHAF 292055Z AUTO 33010KT 5SM HZ CLR 19/15 A3002 RMK AO2
 
KHWD - Hayward, California, USA
Distance from station: N 44km
Oppdatert: 29/09/2022 22:54
Klart
Klart
 Vind fra VNV
Vind: VNV 19 km/h
Temperatur: 25°C
Duggpunkt: 14°C
Fuktighet: 51%
Barometer: 1015.6 hPa
Clouds: Klart
Visibility: 16 km
2022/09/29 20:54 KHWD 292054Z 29010KT 10SM CLR 25/14 A2999 RMK AO2 SLP166 T02500144 58022
KLVK - Livermore, California, USA
Distance from station: NNØ 51km
Oppdatert: 29/09/2022 22:53
Klart
Klart
 Vind fra V
Vind: V 9 km/h
Temperatur: 28°C
Heat Index: 27°C
Duggpunkt: 13°C
Fuktighet: 40%
Barometer: 1015.2 hPa
Clouds: Klart
Visibility: 16 km
2022/09/29 20:53 KLVK 292053Z 28005KT 10SM CLR 28/13 A2998 RMK AO2 SLP149 T02830128 58024